Aeroporto :
LOGIN :

Iscrizione | Disclaimer

   EN    FR    IT 

 










Sommario :    VFR   VFR Marginale   IFR   IFR Intensivo   IFR Molto Intensivo
Visibilità : 
Base nubi : 
>= 8 km
>= 3000ft
5 / 8 km
1000 / 3000 ft
1500m / 5 km
500 / 1000 ft
800 / 1500m
200 / 500 ft
< 800m
< 200 ft
Simboli :   Temporali  Nebbia  Neve Forte  Precipitazioni Forti  Vento > 20 kt
SIGMETs :   Varie  Temporali  Ghiacco  Turbolenza  Onda orograficha  Ceneri Vulcaniche






- Altitudine del aeroporto : 74 ft
- Codice IATA : EIN


EHEH - Eindhoven

ULTIMO METAR :
  • 060255Z AUTO 14005KT 9999 NCD 10/00 Q1016 BLU

METARs OBSOLETI :
  • 060225Z AUTO 14004KT 9999 NCD 10/00 Q1016 BLU
  • 060155Z AUTO 14005KT 9999 NCD 10/00 Q1016 BLU
  • 060125Z AUTO 14005KT 9999 NCD 11/00 Q1016 BLU
  • 060055Z AUTO 14005KT 9999 NCD 11/00 Q1016 BLU
  • 060025Z AUTO 14006KT 9999 NCD 12/00 Q1016 BLU
  • 052355Z AUTO 14006KT 9999 NCD 12/00 Q1016 BLU

TAF TAF EHEH
Valido dal 06 a 00 ore il 07 a 06 ore UTC


052302Z 0600/0706 14008KT CAVOK
BECMG 0607/0609 20010G20KT
BECMG 0616/0619 25005KT SCT025
TEMPO 0618/0622 4500 RA BKN015
BECMG 0622/0700 VRB02KT
PROB30 0700/0706 2500 BR MIFG



MetMap, La meteo Aeronautica in un colpo d'occhio ! - Copyright ORBIFLY Dicembre 2007 - Disclaimer

ORBIFLY MET'MAP TEAM :

Programmazione e sviluppo : Alexandra Zaïnal
Concezione : Baudouin d'Aumeries
Aiuto per la programmazione : Marc-Olivier Méhu
Supporto tecnico e logistico : Manuel Goepfert
Aiuto per la traduzione : Arnaldo La Scala

Contatto : metmap@orbifly.com




FONTI E CREDITI :

   NOAA